createdAt,value
2023-11-01T00:02:04.138Z,10.94
2023-11-01T00:04:31.556Z,10.91
2023-11-01T00:06:59.532Z,10.95
2023-11-01T00:09:26.793Z,10.91
2023-11-01T00:11:54.042Z,10.89
2023-11-01T00:14:21.974Z,10.86
2023-11-01T00:16:49.335Z,10.94
2023-11-01T00:19:16.699Z,10.91
2023-11-01T00:21:43.943Z,10.91
2023-11-01T00:24:11.338Z,10.90
2023-11-01T00:26:38.631Z,10.88
2023-11-01T00:29:06.031Z,10.93
2023-11-01T00:31:33.359Z,10.88
2023-11-01T00:34:00.679Z,10.89
2023-11-01T00:36:28.046Z,10.86
2023-11-01T00:38:55.301Z,10.87
2023-11-01T00:41:22.634Z,10.85
2023-11-01T00:43:50.151Z,10.86
2023-11-01T00:46:17.470Z,10.84
2023-11-01T00:48:44.805Z,10.80
2023-11-01T00:51:12.135Z,10.83
2023-11-01T00:53:39.490Z,10.85
2023-11-01T00:56:07.044Z,10.84
2023-11-01T00:58:34.383Z,10.90
2023-11-01T01:01:02.807Z,10.91
2023-11-01T01:03:31.569Z,10.97
2023-11-01T01:05:59.029Z,11.00
2023-11-01T01:08:28.351Z,11.05
2023-11-01T01:10:57.077Z,11.08
2023-11-01T01:13:24.357Z,11.10
2023-11-01T01:15:51.975Z,11.11
2023-11-01T01:18:21.683Z,11.14
2023-11-01T01:20:49.461Z,11.13
2023-11-01T01:23:16.935Z,11.13
2023-11-01T01:25:44.397Z,11.11
2023-11-01T01:28:11.723Z,11.10
2023-11-01T01:30:38.958Z,11.24
2023-11-01T01:33:06.492Z,11.16
2023-11-01T01:35:33.900Z,11.21
2023-11-01T01:38:01.191Z,11.25
2023-11-01T01:40:28.672Z,11.24
2023-11-01T01:42:56.251Z,11.26
2023-11-01T01:45:23.708Z,11.25
2023-11-01T01:47:51.522Z,11.27
2023-11-01T01:50:18.925Z,11.31
2023-11-01T01:52:46.443Z,11.37
2023-11-01T01:55:14.115Z,11.33
2023-11-01T01:57:41.504Z,11.36
2023-11-01T02:00:09.020Z,11.37
2023-11-01T02:02:42.553Z,11.40
2023-11-01T02:05:10.636Z,11.45
2023-11-01T02:07:37.913Z,11.47
2023-11-01T02:10:06.976Z,11.52
2023-11-01T02:12:34.609Z,11.56
2023-11-01T02:15:01.935Z,11.60
2023-11-01T02:17:31.396Z,11.71
2023-11-01T02:19:58.751Z,11.70
2023-11-01T02:22:26.001Z,11.81
2023-11-01T02:24:56.418Z,11.83
2023-11-01T02:27:23.731Z,11.80
2023-11-01T02:29:51.630Z,11.91
2023-11-01T02:32:18.979Z,11.95
2023-11-01T02:34:46.282Z,11.99
2023-11-01T02:37:13.543Z,12.04
2023-11-01T02:39:40.823Z,12.13
2023-11-01T02:42:08.138Z,12.15
2023-11-01T02:44:35.405Z,12.15
2023-11-01T02:47:02.697Z,12.18
2023-11-01T02:49:29.927Z,12.21
2023-11-01T02:51:57.201Z,12.21
2023-11-01T02:54:24.579Z,12.21
2023-11-01T02:56:51.897Z,12.27
2023-11-01T02:59:19.837Z,12.25
2023-11-01T03:01:47.173Z,12.32
2023-11-01T03:04:14.470Z,12.31
2023-11-01T03:06:41.719Z,12.30
2023-11-01T03:09:10.028Z,12.30
2023-11-01T03:11:39.835Z,12.30
2023-11-01T03:14:07.174Z,12.31
2023-11-01T03:16:37.290Z,12.32
2023-11-01T03:19:04.728Z,12.30
2023-11-01T03:21:31.993Z,12.36
2023-11-01T03:23:59.590Z,12.34
2023-11-01T03:26:27.332Z,12.31
2023-11-01T03:28:54.610Z,12.29
2023-11-01T03:31:22.160Z,12.32
2023-11-01T03:33:49.734Z,12.28
2023-11-01T03:36:16.962Z,12.31
2023-11-01T03:38:44.459Z,12.25
2023-11-01T03:41:11.763Z,12.24
2023-11-01T03:43:39.123Z,12.21
2023-11-01T03:46:07.456Z,12.18
2023-11-01T03:48:34.728Z,12.20
2023-11-01T03:51:01.961Z,12.14
2023-11-01T03:53:29.239Z,12.13
2023-11-01T03:55:56.543Z,12.10
2023-11-01T03:58:23.854Z,12.12
2023-11-01T04:00:51.775Z,12.14
2023-11-01T04:03:19.188Z,12.16
2023-11-01T04:05:46.594Z,12.10
2023-11-01T04:08:13.923Z,12.12
2023-11-01T04:10:41.200Z,12.08
2023-11-01T04:13:08.820Z,12.02
2023-11-01T04:15:36.109Z,12.03
2023-11-01T04:18:04.360Z,12.10
2023-11-01T04:20:32.094Z,12.05
2023-11-01T04:22:59.427Z,12.00
2023-11-01T04:25:26.831Z,11.96
2023-11-01T04:27:54.157Z,11.94
2023-11-01T04:30:21.477Z,11.89
2023-11-01T04:32:53.474Z,11.94
2023-11-01T04:35:20.819Z,11.92
2023-11-01T04:37:48.095Z,11.94
2023-11-01T04:40:16.008Z,11.99
2023-11-01T04:42:43.849Z,12.01
2023-11-01T04:45:11.838Z,12.02
2023-11-01T04:47:48.100Z,12.00
2023-11-01T04:50:16.705Z,12.01
2023-11-01T04:52:44.336Z,12.05
2023-11-01T04:55:11.721Z,12.06
2023-11-01T04:57:39.125Z,12.15
2023-11-01T05:00:17.924Z,12.21
2023-11-01T05:02:48.578Z,12.29
2023-11-01T05:05:16.469Z,12.39
2023-11-01T05:07:43.793Z,12.42
2023-11-01T05:10:11.065Z,12.53
2023-11-01T05:12:38.297Z,12.64
2023-11-01T05:15:05.613Z,12.74
2023-11-01T05:17:34.171Z,12.91
2023-11-01T05:20:01.746Z,13.09
2023-11-01T05:22:29.005Z,13.16
2023-11-01T05:24:56.233Z,13.22
2023-11-01T05:27:23.540Z,13.35
2023-11-01T05:29:50.823Z,13.48
2023-11-01T05:32:18.123Z,13.57
2023-11-01T05:34:46.745Z,13.75
2023-11-01T05:37:14.140Z,13.89
2023-11-01T05:39:42.229Z,14.01
2023-11-01T05:42:10.019Z,13.99
2023-11-01T05:44:37.315Z,13.99
2023-11-01T05:47:05.099Z,13.94
2023-11-01T05:49:32.997Z,14.01
2023-11-01T05:52:00.248Z,14.03
2023-11-01T05:54:27.909Z,13.99
2023-11-01T05:56:55.751Z,14.08
2023-11-01T05:59:23.032Z,14.20
2023-11-01T06:01:50.372Z,14.44
2023-11-01T06:04:17.715Z,14.60
2023-11-01T06:06:45.023Z,14.79
2023-11-01T06:09:18.131Z,15.01
2023-11-01T06:11:45.441Z,15.27
2023-11-01T06:14:12.709Z,15.45
2023-11-01T06:16:40.082Z,15.52
2023-11-01T06:19:07.499Z,15.69
2023-11-01T06:21:34.733Z,15.78
2023-11-01T06:24:02.949Z,15.92
2023-11-01T06:26:32.506Z,16.02
2023-11-01T06:28:59.887Z,16.08
2023-11-01T06:31:27.136Z,15.95
2023-11-01T06:33:54.515Z,15.91
2023-11-01T06:36:22.152Z,15.85
2023-11-01T06:38:49.442Z,15.83
2023-11-01T06:41:16.736Z,15.82
2023-11-01T06:43:43.976Z,15.75
2023-11-01T06:46:11.233Z,15.61
2023-11-01T06:48:39.191Z,15.48
2023-11-01T06:51:06.538Z,15.54
2023-11-01T06:53:33.805Z,15.58
2023-11-01T06:56:01.070Z,15.54
2023-11-01T06:58:28.336Z,15.46
2023-11-01T07:00:56.392Z,15.48
2023-11-01T07:03:23.854Z,15.45
2023-11-01T07:05:52.087Z,15.52
2023-11-01T07:08:19.361Z,15.66
2023-11-01T07:10:46.655Z,15.87
2023-11-01T07:13:13.884Z,16.06
2023-11-01T07:15:41.142Z,16.20
2023-11-01T07:18:08.698Z,16.29
2023-11-01T07:20:36.968Z,16.45
2023-11-01T07:23:05.708Z,16.57
2023-11-01T07:25:32.984Z,16.64
2023-11-01T07:28:00.254Z,16.66
2023-11-01T07:30:27.521Z,16.63
2023-11-01T07:32:55.216Z,16.75
2023-11-01T07:35:22.509Z,16.87
2023-11-01T07:37:49.802Z,17.12
2023-11-01T07:40:17.069Z,17.38
2023-11-01T07:42:47.928Z,17.58
2023-11-01T07:45:15.257Z,17.82
2023-11-01T07:47:43.162Z,17.68
2023-11-01T07:50:13.425Z,17.56
2023-11-01T07:52:41.190Z,17.39
2023-11-01T07:55:08.530Z,17.08
2023-11-01T07:57:35.782Z,16.95
2023-11-01T08:00:05.121Z,16.81
2023-11-01T08:02:32.813Z,16.64
2023-11-01T08:05:00.342Z,16.36
2023-11-01T08:07:27.684Z,16.23
2023-11-01T08:09:54.970Z,16.13
2023-11-01T08:12:22.257Z,16.08
2023-11-01T08:14:49.540Z,15.94
2023-11-01T08:17:18.956Z,15.97
2023-11-01T08:19:46.401Z,15.96
2023-11-01T08:22:14.574Z,16.00
2023-11-01T08:24:42.354Z,16.17
2023-11-01T08:27:10.221Z,16.19
2023-11-01T08:29:38.909Z,16.27
2023-11-01T08:32:06.966Z,16.40
2023-11-01T08:34:34.412Z,16.37
2023-11-01T08:37:01.674Z,16.18
2023-11-01T08:39:37.904Z,16.25
2023-11-01T08:42:05.431Z,16.43
2023-11-01T08:44:32.815Z,16.47
2023-11-01T08:47:04.230Z,16.47
2023-11-01T08:49:31.880Z,16.34
2023-11-01T08:51:59.448Z,16.23
2023-11-01T08:54:28.396Z,16.06
2023-11-01T08:56:56.520Z,16.13
2023-11-01T08:59:23.964Z,16.30
2023-11-01T09:02:04.689Z,16.31
2023-11-01T09:04:35.066Z,16.70
2023-11-01T09:07:03.004Z,16.97
2023-11-01T09:09:30.979Z,17.06
2023-11-01T09:11:58.722Z,17.10
2023-11-01T09:14:26.287Z,17.36
2023-11-01T09:16:53.680Z,17.77
2023-11-01T09:19:21.026Z,17.98
2023-11-01T09:21:48.627Z,18.47
2023-11-01T09:24:16.938Z,19.40
2023-11-01T09:26:45.978Z,20.57
2023-11-01T09:29:15.410Z,21.67
2023-11-01T09:31:51.813Z,22.97
2023-11-01T09:34:20.836Z,24.05
2023-11-01T09:36:48.275Z,24.87
2023-11-01T09:39:15.860Z,25.20
2023-11-01T09:41:53.771Z,25.28
2023-11-01T09:44:21.281Z,25.76
2023-11-01T09:46:49.560Z,26.17
2023-11-01T09:49:17.556Z,26.61
2023-11-01T09:51:45.894Z,26.66
2023-11-01T09:54:14.411Z,26.59
2023-11-01T09:56:46.496Z,26.55
2023-11-01T09:59:14.175Z,27.10
2023-11-01T10:01:41.830Z,27.23
2023-11-01T10:04:10.044Z,27.46
2023-11-01T10:06:38.069Z,27.55
2023-11-01T10:09:06.702Z,28.38
2023-11-01T10:11:34.201Z,29.55
2023-11-01T10:14:04.455Z,30.45
2023-11-01T10:16:32.716Z,31.18
2023-11-01T10:19:01.245Z,32.01
2023-11-01T10:21:33.217Z,32.80
2023-11-01T10:24:02.441Z,32.99
2023-11-01T10:26:31.208Z,33.41
2023-11-01T10:28:59.606Z,34.01
2023-11-01T10:31:27.076Z,34.37
2023-11-01T10:33:54.835Z,34.51
2023-11-01T10:36:22.495Z,34.88
2023-11-01T10:38:52.996Z,35.43
2023-11-01T10:41:20.820Z,35.72
2023-11-01T10:43:48.564Z,35.61
2023-11-01T10:46:17.433Z,35.44
2023-11-01T10:48:46.052Z,35.08
2023-11-01T10:51:16.152Z,34.83
2023-11-01T10:53:44.070Z,34.50
2023-11-01T10:56:11.450Z,34.06
2023-11-01T10:58:42.585Z,33.82
2023-11-01T11:01:27.964Z,33.81
2023-11-01T11:04:01.470Z,33.47
2023-11-01T11:06:37.048Z,33.40
2023-11-01T11:09:25.194Z,33.47
2023-11-01T11:12:13.704Z,33.37
2023-11-01T11:14:45.076Z,32.37
2023-11-01T11:17:19.110Z,30.97
2023-11-01T11:20:04.949Z,29.83
2023-11-01T11:22:51.315Z,29.00
2023-11-01T11:25:37.111Z,27.06
2023-11-01T11:28:06.902Z,25.34
2023-11-01T11:30:46.869Z,23.95
2023-11-01T11:33:17.286Z,22.84
2023-11-01T11:35:44.708Z,22.09
2023-11-01T11:38:31.651Z,21.54
2023-11-01T11:41:17.445Z,20.91
2023-11-01T11:43:59.784Z,20.62
2023-11-01T11:46:36.821Z,20.18
2023-11-01T11:49:05.091Z,19.87
2023-11-01T11:51:35.919Z,19.71
2023-11-01T11:54:10.267Z,19.49
2023-11-01T11:56:37.815Z,19.24
2023-11-01T11:59:05.295Z,19.08
2023-11-01T12:01:33.058Z,18.97
2023-11-01T12:04:00.513Z,18.88
2023-11-01T12:06:38.739Z,18.83
2023-11-01T12:09:12.378Z,18.77
2023-11-01T12:11:40.148Z,18.66
2023-11-01T12:14:07.527Z,18.60
2023-11-01T12:16:37.162Z,18.59
2023-11-01T12:19:10.002Z,18.65
2023-11-01T12:21:40.977Z,18.68
2023-11-01T12:24:10.066Z,18.62
2023-11-01T12:26:58.700Z,18.55
2023-11-01T12:29:46.539Z,18.48
2023-11-01T12:32:15.277Z,18.44
2023-11-01T12:34:48.642Z,18.34
2023-11-01T12:37:17.529Z,18.15
2023-11-01T12:40:05.801Z,18.01
2023-11-01T12:42:34.640Z,17.86
2023-11-01T12:45:02.478Z,17.73
2023-11-01T12:47:48.165Z,17.67
2023-11-01T12:50:19.390Z,17.68
2023-11-01T12:52:47.371Z,17.70
2023-11-01T12:55:15.007Z,17.65
2023-11-01T12:57:49.265Z,17.56
2023-11-01T13:00:17.557Z,17.53
2023-11-01T13:02:45.364Z,17.40
2023-11-01T13:05:13.819Z,17.31
2023-11-01T13:07:41.433Z,17.19
2023-11-01T13:10:11.494Z,17.18
2023-11-01T13:12:40.331Z,17.08
2023-11-01T13:15:08.155Z,17.05
2023-11-01T13:17:35.705Z,17.03
2023-11-01T13:20:03.253Z,17.00
2023-11-01T13:22:31.266Z,16.99
2023-11-01T13:24:59.151Z,16.91
2023-11-01T13:27:26.473Z,16.87
2023-11-01T13:29:53.885Z,16.81
2023-11-01T13:32:21.170Z,16.77
2023-11-01T13:34:49.058Z,16.74
2023-11-01T13:37:17.217Z,16.71
2023-11-01T13:39:44.772Z,16.69
2023-11-01T13:42:16.293Z,16.65
2023-11-01T13:44:44.772Z,16.59
2023-11-01T13:47:12.450Z,16.54
2023-11-01T13:49:41.320Z,16.45
2023-11-01T13:52:09.079Z,16.42
2023-11-01T13:54:36.356Z,16.35
2023-11-01T13:57:06.653Z,16.27
2023-11-01T13:59:34.092Z,16.19
2023-11-01T14:02:01.446Z,16.21
2023-11-01T14:04:28.974Z,16.16
2023-11-01T14:06:56.332Z,16.12
2023-11-01T14:09:23.579Z,16.15
2023-11-01T14:11:54.183Z,16.22
2023-11-01T14:14:24.964Z,16.21
2023-11-01T14:16:52.715Z,16.16
2023-11-01T14:19:20.049Z,16.16
2023-11-01T14:21:47.658Z,16.11
2023-11-01T14:24:17.184Z,16.05
2023-11-01T14:26:46.466Z,16.02
2023-11-01T14:29:13.865Z,16.00
2023-11-01T14:31:41.244Z,16.03
2023-11-01T14:34:08.858Z,16.05
2023-11-01T14:36:36.446Z,16.04
2023-11-01T14:39:04.337Z,16.11
2023-11-01T14:41:32.197Z,16.10
2023-11-01T14:44:01.042Z,16.08
2023-11-01T14:46:28.951Z,16.10
2023-11-01T14:48:56.845Z,16.15
2023-11-01T14:51:24.216Z,16.07
2023-11-01T14:54:09.867Z,16.16
2023-11-01T14:56:38.431Z,16.15
2023-11-01T14:59:08.520Z,16.11
2023-11-01T15:01:37.677Z,16.11
2023-11-01T15:04:05.349Z,16.06
2023-11-01T15:06:34.614Z,16.03
2023-11-01T15:09:02.417Z,16.00
2023-11-01T15:11:30.253Z,15.94
2023-11-01T15:13:57.916Z,15.96
2023-11-01T15:16:27.195Z,15.98
2023-11-01T15:18:54.633Z,15.96
2023-11-01T15:21:21.988Z,15.97
2023-11-01T15:23:49.403Z,15.92
2023-11-01T15:26:17.036Z,15.94
2023-11-01T15:28:44.775Z,15.88
2023-11-01T15:31:12.468Z,15.91
2023-11-01T15:33:39.978Z,15.87
2023-11-01T15:36:09.028Z,15.81
2023-11-01T15:38:36.725Z,15.75
2023-11-01T15:41:04.971Z,15.79
2023-11-01T15:43:32.292Z,15.75
2023-11-01T15:45:59.669Z,15.80
2023-11-01T15:48:27.172Z,15.77
2023-11-01T15:50:55.178Z,15.75
2023-11-01T15:53:24.844Z,15.76
2023-11-01T15:55:54.155Z,15.69
2023-11-01T15:58:22.790Z,15.75
2023-11-01T16:00:50.838Z,15.72
2023-11-01T16:03:19.516Z,15.72
2023-11-01T16:05:48.034Z,15.73
2023-11-01T16:08:16.950Z,15.70
2023-11-01T16:10:44.344Z,15.73
2023-11-01T16:13:11.625Z,15.62
2023-11-01T16:15:38.948Z,15.62
2023-11-01T16:18:08.340Z,15.65
2023-11-01T16:20:35.832Z,15.47
2023-11-01T16:23:03.290Z,15.60
2023-11-01T16:25:30.697Z,15.56
2023-11-01T16:30:42.957Z,15.58
2023-11-01T16:33:11.622Z,15.56
2023-11-01T16:35:39.330Z,15.57
2023-11-01T16:38:07.672Z,15.64
2023-11-01T16:40:35.039Z,15.64
2023-11-01T16:43:02.944Z,15.60
2023-11-01T16:45:30.218Z,15.59
2023-11-01T16:47:57.778Z,15.52
2023-11-01T16:50:25.751Z,15.54
2023-11-01T16:52:54.625Z,15.53
2023-11-01T16:55:28.325Z,15.54
2023-11-01T16:57:56.888Z,15.58
2023-11-01T17:00:27.806Z,15.58
2023-11-01T17:02:55.665Z,15.61
2023-11-01T17:05:24.231Z,15.58
2023-11-01T17:07:51.523Z,15.57
2023-11-01T17:10:18.822Z,15.62
2023-11-01T17:12:47.268Z,15.69
2023-11-01T17:15:14.592Z,15.64
2023-11-01T17:17:44.309Z,15.63
2023-11-01T17:20:21.930Z,15.61
2023-11-01T17:22:56.699Z,15.58
2023-11-01T17:25:35.996Z,15.61
2023-11-01T17:28:03.405Z,15.60
2023-11-01T17:30:30.716Z,15.65
2023-11-01T17:32:58.281Z,15.67
2023-11-01T17:35:25.631Z,15.69
2023-11-01T17:37:54.457Z,15.62
2023-11-01T17:40:23.398Z,15.55
2023-11-01T17:42:50.728Z,15.62
2023-11-01T17:45:19.545Z,15.55
2023-11-01T17:47:48.078Z,15.53
2023-11-01T17:50:17.885Z,15.49
2023-11-01T17:52:46.579Z,15.48
2023-11-01T17:55:21.285Z,15.48
2023-11-01T17:57:50.180Z,15.43
2023-11-01T18:00:20.677Z,15.43
2023-11-01T18:03:08.465Z,15.51
2023-11-01T18:05:41.793Z,15.43
2023-11-01T18:08:10.359Z,15.38
2023-11-01T18:10:45.312Z,15.39
2023-11-01T18:13:18.776Z,15.29
2023-11-01T18:15:46.957Z,15.32
2023-11-01T18:18:29.420Z,15.36
2023-11-01T18:20:59.037Z,15.28
2023-11-01T18:23:28.045Z,15.26
2023-11-01T18:26:08.310Z,15.26
2023-11-01T18:28:38.470Z,15.22
2023-11-01T18:31:06.134Z,15.31
2023-11-01T18:33:33.489Z,15.27
2023-11-01T18:36:00.810Z,15.24
2023-11-01T18:39:00.608Z,15.23
2023-11-01T18:41:34.744Z,15.30
2023-11-01T18:44:03.500Z,15.32
2023-11-01T18:46:31.913Z,15.19
2023-11-01T18:48:59.253Z,15.22
2023-11-01T18:51:43.171Z,15.18
2023-11-01T18:54:10.791Z,15.13
2023-11-01T18:56:40.073Z,15.15
2023-11-01T18:59:08.007Z,15.14
2023-11-01T19:01:41.697Z,15.10
2023-11-01T19:04:10.256Z,15.14
2023-11-01T19:06:38.325Z,15.12
2023-11-01T19:09:05.670Z,15.11
2023-11-01T19:11:33.836Z,15.07
2023-11-01T19:14:01.624Z,15.12
2023-11-01T19:16:28.944Z,15.07
2023-11-01T19:18:57.853Z,15.00
2023-11-01T19:21:25.267Z,14.96
2023-11-01T19:23:52.814Z,14.98
2023-11-01T19:26:22.148Z,14.96
2023-11-01T19:28:50.664Z,14.98
2023-11-01T19:31:20.411Z,14.95
2023-11-01T19:33:49.937Z,14.96
2023-11-01T19:36:18.968Z,14.99
2023-11-01T19:38:46.812Z,15.00
2023-11-01T19:41:14.943Z,14.92
2023-11-01T19:43:42.365Z,14.93
2023-11-01T19:46:09.674Z,14.86
2023-11-01T19:48:38.114Z,14.85
2023-11-01T19:51:07.591Z,14.87
2023-11-01T19:53:34.973Z,14.88
2023-11-01T19:56:02.821Z,14.90
2023-11-01T19:58:30.068Z,14.86
2023-11-01T20:00:57.319Z,14.91
2023-11-01T20:03:24.709Z,14.88
2023-11-01T20:05:52.337Z,14.91
2023-11-01T20:08:19.623Z,14.86
2023-11-01T20:10:46.950Z,14.85
2023-11-01T20:13:14.200Z,14.86
2023-11-01T20:15:41.430Z,14.90
2023-11-01T20:18:08.773Z,14.86
2023-11-01T20:20:36.093Z,14.88
2023-11-01T20:23:03.338Z,14.90
2023-11-01T20:25:30.776Z,14.89
2023-11-01T20:27:58.336Z,14.85
2023-11-01T20:30:25.635Z,14.84
2023-11-01T20:32:52.970Z,14.85
2023-11-01T20:35:20.252Z,14.86
2023-11-01T20:37:47.645Z,14.87
2023-11-01T20:40:14.942Z,14.87
2023-11-01T20:42:42.265Z,14.90
2023-11-01T20:45:09.940Z,14.90
2023-11-01T20:47:37.506Z,14.93
2023-11-01T20:50:07.776Z,14.90
2023-11-01T20:52:35.331Z,14.87
2023-11-01T20:55:06.367Z,14.86
2023-11-01T20:57:33.971Z,14.97
2023-11-01T21:00:01.444Z,14.89
2023-11-01T21:02:31.287Z,14.83
2023-11-01T21:04:58.706Z,14.82
2023-11-01T21:07:30.892Z,14.79
2023-11-01T21:10:01.087Z,14.79
2023-11-01T21:12:28.575Z,14.80
2023-11-01T21:14:55.893Z,14.74
2023-11-01T21:17:23.758Z,14.64
2023-11-01T21:19:52.234Z,14.87
2023-11-01T21:22:19.559Z,14.83
2023-11-01T21:24:46.826Z,14.74
2023-11-01T21:27:14.149Z,14.77
2023-11-01T21:29:41.658Z,14.77
2023-11-01T21:32:08.974Z,14.76
2023-11-01T21:34:36.269Z,14.73
2023-11-01T21:37:03.627Z,14.76
2023-11-01T21:39:30.910Z,14.73
2023-11-01T21:42:00.406Z,14.72
2023-11-01T21:44:36.266Z,14.84
2023-11-01T21:47:06.619Z,14.77
2023-11-01T21:49:36.820Z,14.70
2023-11-01T21:52:10.456Z,14.65
2023-11-01T21:54:37.727Z,14.62
2023-11-01T21:57:07.486Z,14.63
2023-11-01T21:59:35.845Z,14.64
2023-11-01T22:02:07.334Z,14.64
2023-11-01T22:04:36.529Z,14.67
2023-11-01T22:07:08.400Z,14.67
2023-11-01T22:09:35.664Z,14.68
2023-11-01T22:12:03.097Z,14.67
2023-11-01T22:14:31.812Z,14.64
2023-11-01T22:17:03.294Z,14.66
2023-11-01T22:19:38.513Z,14.69
2023-11-01T22:22:21.537Z,14.68
2023-11-01T22:24:48.859Z,14.71
2023-11-01T22:27:16.955Z,14.69
2023-11-01T22:29:44.292Z,14.61
2023-11-01T22:32:27.161Z,14.57
2023-11-01T22:34:54.996Z,14.54
2023-11-01T22:37:26.542Z,14.64
2023-11-01T22:39:54.832Z,14.58
2023-11-01T22:42:31.175Z,14.55
2023-11-01T22:45:02.972Z,14.55
2023-11-01T22:47:31.758Z,14.56
2023-11-01T22:49:59.222Z,14.58
2023-11-01T22:52:26.511Z,14.61
2023-11-01T22:54:53.762Z,14.64
2023-11-01T22:57:21.254Z,14.65
2023-11-01T22:59:48.660Z,14.66
2023-11-01T23:02:16.787Z,14.68
2023-11-01T23:04:44.250Z,14.68
2023-11-01T23:07:11.809Z,14.69
2023-11-01T23:09:39.249Z,14.69
2023-11-01T23:12:07.011Z,14.72
2023-11-01T23:14:34.314Z,14.71
2023-11-01T23:17:01.929Z,14.73
2023-11-01T23:19:29.281Z,14.73
2023-11-01T23:21:58.432Z,14.77
2023-11-01T23:24:26.463Z,14.77
2023-11-01T23:26:55.477Z,14.76
2023-11-01T23:29:26.251Z,14.79
2023-11-01T23:31:53.697Z,14.82
2023-11-01T23:34:28.335Z,14.84
2023-11-01T23:36:55.616Z,14.84
2023-11-01T23:39:34.873Z,14.88
2023-11-01T23:42:02.419Z,14.87
2023-11-01T23:44:33.384Z,14.87
2023-11-01T23:47:00.660Z,14.87
2023-11-01T23:49:46.732Z,14.89
2023-11-01T23:52:17.671Z,14.91
2023-11-01T23:54:45.604Z,14.92
2023-11-01T23:57:13.402Z,14.89
2023-11-01T23:59:40.717Z,14.93
